This is the latest recevied weather packets stored in our database for station/object IU2PLZ-12. If no packets are shown the sender has not sent any weather packets the latest 10 day(s).
| Time | Temp. | Humidity | Pressure | Rain* | Wind** | Luminosity | Snow |
|---|---|---|---|---|---|---|---|
| 1777477558 | 26.67° C | 42% | 997.7 hPa | - | - | - | - |
| 1777476658 | 25° C | 42% | 997.7 hPa | - | - | - | - |
| 1777475758 | 28.33° C | 38% | 997.6 hPa | - | - | - | - |
| 1777474857 | 27.78° C | 38% | 997.6 hPa | - | - | - | - |
| 1777473957 | 26.67° C | 39% | 997.7 hPa | - | - | - | - |
| 1777473057 | 26.67° C | 39% | 997.7 hPa | - | - | - | - |
| 1777472157 | 26.67° C | 39% | 997.8 hPa | - | - | - | - |
| 1777471257 | 26.11° C | 39% | 997.8 hPa | - | - | - | - |
| 1777470356 | 26.67° C | 39% | 997.9 hPa | - | - | - | - |
| 1777469456 | 27.78° C | 37% | 998.1 hPa | - | - | - | - |
| 1777468556 | 28.89° C | 37% | 998.2 hPa | - | - | - | - |
| 1777467656 | 30.56° C | 35% | 998.3 hPa | - | - | - | - |
| 1777466756 | 31.11° C | 36% | 998.4 hPa | - | - | - | - |
| 1777465855 | 27.78° C | 39% | 998.5 hPa | - | - | - | - |
| 1777464955 | 27.22° C | 39% | 998.6 hPa | - | - | - | - |
| 1777464055 | 28.89° C | 38% | 998.6 hPa | - | - | - | - |
| 1777463155 | 31.67° C | 37% | 998.6 hPa | - | - | - | - |
| 1777462255 | 29.44° C | 39% | 998.7 hPa | - | - | - | - |
| 1777461355 | 28.89° C | 39% | 998.9 hPa | - | - | - | - |
| 1777460454 | 29.44° C | 41% | 999 hPa | - | - | - | - |
| 1777459554 | 30.56° C | 41% | 999.1 hPa | - | - | - | - |
| 1777458654 | 29.44° C | 42% | 999.1 hPa | - | - | - | - |
| 1777457754 | 28.33° C | 43% | 999.2 hPa | - | - | - | - |
| 1777456853 | 29.44° C | 42% | 999.2 hPa | - | - | - | - |
| 1777455953 | 32.22° C | 41% | 999.3 hPa | - | - | - | - |
* Rain since midnight (hover to see other rain measurements)
** Current wind speed in m/s (hover to see current wind gust speed)